sensor_id;sensor_type;location;lat;lon;timestamp;P1;durP1;ratioP1;P2;durP2;ratioP2
49235;SDS011;35067;48.134;8.378;2022-08-18T00:00:11;211.00;;;196.13;;
49235;SDS011;35067;48.134;8.378;2022-08-18T00:02:14;163.83;;;151.70;;
49235;SDS011;35067;48.134;8.378;2022-08-18T00:04:17;349.33;;;297.33;;
49235;SDS011;35067;48.134;8.378;2022-08-18T00:06:18;725.23;;;441.60;;
49235;SDS011;35067;48.134;8.378;2022-08-18T00:08:18;131.03;;;120.63;;
49235;SDS011;35067;48.134;8.378;2022-08-18T00:10:19;287.97;;;268.33;;
49235;SDS011;35067;48.134;8.378;2022-08-18T00:12:24;205.93;;;193.63;;
49235;SDS011;35067;48.134;8.378;2022-08-18T00:14:28;162.77;;;151.70;;
49235;SDS011;35067;48.134;8.378;2022-08-18T00:16:29;167.70;;;157.80;;
49235;SDS011;35067;48.134;8.378;2022-08-18T00:18:29;645.03;;;442.23;;
49235;SDS011;35067;48.134;8.378;2022-08-18T00:20:30;507.20;;;377.40;;
49235;SDS011;35067;48.134;8.378;2022-08-18T00:22:30;293.23;;;275.33;;
49235;SDS011;35067;48.134;8.378;2022-08-18T00:24:31;289.77;;;269.00;;
49235;SDS011;35067;48.134;8.378;2022-08-18T00:26:33;1218.70;;;369.20;;
49235;SDS011;35067;48.134;8.378;2022-08-18T00:28:33;1210.13;;;424.83;;
49235;SDS011;35067;48.134;8.378;2022-08-18T00:30:34;1214.03;;;367.60;;
49235;SDS011;35067;48.134;8.378;2022-08-18T00:32:35;1060.17;;;299.17;;
49235;SDS011;35067;48.134;8.378;2022-08-18T00:34:38;306.03;;;237.00;;
49235;SDS011;35067;48.134;8.378;2022-08-18T00:36:38;366.60;;;328.70;;
49235;SDS011;35067;48.134;8.378;2022-08-18T00:38:39;382.40;;;354.53;;
49235;SDS011;35067;48.134;8.378;2022-08-18T00:40:42;790.90;;;341.87;;
49235;SDS011;35067;48.134;8.378;2022-08-18T00:42:46;366.97;;;332.33;;
49235;SDS011;35067;48.134;8.378;2022-08-18T00:44:49;550.90;;;376.57;;
49235;SDS011;35067;48.134;8.378;2022-08-18T00:46:49;428.13;;;301.53;;
49235;SDS011;35067;48.134;8.378;2022-08-18T00:48:50;333.53;;;312.63;;
49235;SDS011;35067;48.134;8.378;2022-08-18T00:50:56;657.77;;;297.00;;
49235;SDS011;35067;48.134;8.378;2022-08-18T00:53:18;576.80;;;344.20;;
49235;SDS011;35067;48.134;8.378;2022-08-18T00:55:26;1259.73;;;446.73;;
49235;SDS011;35067;48.134;8.378;2022-08-18T00:57:29;1042.63;;;383.10;;
49235;SDS011;35067;48.134;8.378;2022-08-18T01:01:31;523.50;;;306.40;;
49235;SDS011;35067;48.134;8.378;2022-08-18T01:03:33;452.10;;;368.63;;
49235;SDS011;35067;48.134;8.378;2022-08-18T01:05:40;879.30;;;445.13;;
49235;SDS011;35067;48.134;8.378;2022-08-18T01:07:45;464.17;;;311.20;;
49235;SDS011;35067;48.134;8.378;2022-08-18T01:09:48;1177.47;;;300.40;;
49235;SDS011;35067;48.134;8.378;2022-08-18T01:11:50;1581.07;;;375.00;;
49235;SDS011;35067;48.134;8.378;2022-08-18T01:13:50;801.70;;;381.47;;
49235;SDS011;35067;48.134;8.378;2022-08-18T01:15:52;863.87;;;396.83;;
49235;SDS011;35067;48.134;8.378;2022-08-18T01:17:53;523.83;;;229.33;;
49235;SDS011;35067;48.134;8.378;2022-08-18T01:20:14;824.60;;;296.30;;
49235;SDS011;35067;48.134;8.378;2022-08-18T01:24:46;175.27;;;164.67;;
49235;SDS011;35067;48.134;8.378;2022-08-18T01:27:09;311.07;;;277.03;;
49235;SDS011;35067;48.134;8.378;2022-08-18T01:29:11;1277.50;;;363.23;;
49235;SDS011;35067;48.134;8.378;2022-08-18T01:31:18;259.90;;;202.63;;
49235;SDS011;35067;48.134;8.378;2022-08-18T01:33:42;191.70;;;172.37;;
49235;SDS011;35067;48.134;8.378;2022-08-18T01:35:44;810.60;;;332.37;;
49235;SDS011;35067;48.134;8.378;2022-08-18T01:37:48;595.43;;;311.33;;
49235;SDS011;35067;48.134;8.378;2022-08-18T01:39:48;168.47;;;158.30;;
49235;SDS011;35067;48.134;8.378;2022-08-18T01:41:50;453.77;;;336.00;;
49235;SDS011;35067;48.134;8.378;2022-08-18T01:43:50;192.70;;;181.10;;
49235;SDS011;35067;48.134;8.378;2022-08-18T01:45:51;412.10;;;299.80;;
49235;SDS011;35067;48.134;8.378;2022-08-18T01:47:52;239.80;;;221.37;;
49235;SDS011;35067;48.134;8.378;2022-08-18T01:49:52;453.40;;;409.07;;
49235;SDS011;35067;48.134;8.378;2022-08-18T01:51:53;690.77;;;453.10;;
49235;SDS011;35067;48.134;8.378;2022-08-18T01:53:54;1198.60;;;497.17;;
49235;SDS011;35067;48.134;8.378;2022-08-18T01:55:57;551.83;;;297.13;;
49235;SDS011;35067;48.134;8.378;2022-08-18T01:57:58;415.03;;;383.87;;
49235;SDS011;35067;48.134;8.378;2022-08-18T02:00:00;230.70;;;215.60;;
49235;SDS011;35067;48.134;8.378;2022-08-18T02:02:01;908.17;;;509.80;;
49235;SDS011;35067;48.134;8.378;2022-08-18T02:04:02;565.67;;;408.03;;
49235;SDS011;35067;48.134;8.378;2022-08-18T02:06:08;950.40;;;492.30;;
49235;SDS011;35067;48.134;8.378;2022-08-18T02:08:11;454.17;;;283.80;;
49235;SDS011;35067;48.134;8.378;2022-08-18T02:10:12;606.33;;;326.17;;
49235;SDS011;35067;48.134;8.378;2022-08-18T02:12:13;283.20;;;264.97;;
49235;SDS011;35067;48.134;8.378;2022-08-18T02:14:13;241.83;;;223.70;;
49235;SDS011;35067;48.134;8.378;2022-08-18T02:16:14;411.57;;;274.80;;
49235;SDS011;35067;48.134;8.378;2022-08-18T02:18:16;277.27;;;257.67;;
49235;SDS011;35067;48.134;8.378;2022-08-18T02:20:19;1002.03;;;310.77;;
49235;SDS011;35067;48.134;8.378;2022-08-18T02:22:20;675.60;;;353.23;;
49235;SDS011;35067;48.134;8.378;2022-08-18T02:24:20;652.97;;;321.17;;
49235;SDS011;35067;48.134;8.378;2022-08-18T02:26:21;953.20;;;347.43;;
49235;SDS011;35067;48.134;8.378;2022-08-18T02:28:22;523.93;;;324.17;;
49235;SDS011;35067;48.134;8.378;2022-08-18T02:30:23;271.37;;;205.37;;
49235;SDS011;35067;48.134;8.378;2022-08-18T02:32:23;227.23;;;207.63;;
49235;SDS011;35067;48.134;8.378;2022-08-18T02:34:24;350.70;;;326.83;;
49235;SDS011;35067;48.134;8.378;2022-08-18T02:36:25;580.60;;;426.67;;
49235;SDS011;35067;48.134;8.378;2022-08-18T02:38:25;456.30;;;423.10;;
49235;SDS011;35067;48.134;8.378;2022-08-18T02:40:26;449.60;;;410.83;;
49235;SDS011;35067;48.134;8.378;2022-08-18T02:42:27;420.53;;;391.13;;
49235;SDS011;35067;48.134;8.378;2022-08-18T02:44:28;373.00;;;346.80;;
49235;SDS011;35067;48.134;8.378;2022-08-18T02:46:28;1767.87;;;438.37;;
49235;SDS011;35067;48.134;8.378;2022-08-18T02:48:29;380.67;;;353.20;;
49235;SDS011;35067;48.134;8.378;2022-08-18T02:50:33;246.97;;;225.63;;
49235;SDS011;35067;48.134;8.378;2022-08-18T02:52:43;435.53;;;398.67;;
49235;SDS011;35067;48.134;8.378;2022-08-18T02:54:44;419.33;;;388.77;;
49235;SDS011;35067;48.134;8.378;2022-08-18T02:56:45;1185.83;;;512.80;;
49235;SDS011;35067;48.134;8.378;2022-08-18T02:58:47;766.47;;;425.87;;
49235;SDS011;35067;48.134;8.378;2022-08-18T03:00:48;311.60;;;250.07;;
49235;SDS011;35067;48.134;8.378;2022-08-18T03:02:50;988.03;;;483.23;;
49235;SDS011;35067;48.134;8.378;2022-08-18T03:04:50;279.30;;;237.27;;
49235;SDS011;35067;48.134;8.378;2022-08-18T03:06:52;1322.37;;;342.93;;
49235;SDS011;35067;48.134;8.378;2022-08-18T03:08:55;260.07;;;235.63;;
49235;SDS011;35067;48.134;8.378;2022-08-18T03:10:55;709.97;;;280.53;;
49235;SDS011;35067;48.134;8.378;2022-08-18T03:12:56;612.33;;;288.70;;
49235;SDS011;35067;48.134;8.378;2022-08-18T03:14:56;364.37;;;321.50;;
49235;SDS011;35067;48.134;8.378;2022-08-18T03:16:57;184.40;;;172.80;;
49235;SDS011;35067;48.134;8.378;2022-08-18T03:18:59;209.33;;;194.10;;
49235;SDS011;35067;48.134;8.378;2022-08-18T03:21:07;353.47;;;318.90;;
49235;SDS011;35067;48.134;8.378;2022-08-18T03:23:14;193.53;;;177.77;;
49235;SDS011;35067;48.134;8.378;2022-08-18T03:25:14;241.53;;;224.00;;
49235;SDS011;35067;48.134;8.378;2022-08-18T03:27:15;467.97;;;425.63;;
49235;SDS011;35067;48.134;8.378;2022-08-18T03:29:16;437.17;;;401.10;;
49235;SDS011;35067;48.134;8.378;2022-08-18T03:31:17;1979.17;;;633.40;;
49235;SDS011;35067;48.134;8.378;2022-08-18T03:33:19;902.83;;;463.80;;
49235;SDS011;35067;48.134;8.378;2022-08-18T03:35:20;1130.43;;;482.67;;
49235;SDS011;35067;48.134;8.378;2022-08-18T03:37:20;492.90;;;447.00;;
49235;SDS011;35067;48.134;8.378;2022-08-18T03:39:21;960.47;;;392.20;;
49235;SDS011;35067;48.134;8.378;2022-08-18T03:41:23;559.07;;;312.63;;
49235;SDS011;35067;48.134;8.378;2022-08-18T03:43:26;1323.37;;;329.43;;
49235;SDS011;35067;48.134;8.378;2022-08-18T03:45:26;1120.20;;;322.97;;
49235;SDS011;35067;48.134;8.378;2022-08-18T03:47:30;1155.93;;;457.37;;
49235;SDS011;35067;48.134;8.378;2022-08-18T03:49:31;624.93;;;293.37;;
49235;SDS011;35067;48.134;8.378;2022-08-18T03:51:32;481.73;;;443.97;;
49235;SDS011;35067;48.134;8.378;2022-08-18T03:53:34;392.43;;;318.07;;
49235;SDS011;35067;48.134;8.378;2022-08-18T03:55:39;527.67;;;344.00;;
49235;SDS011;35067;48.134;8.378;2022-08-18T03:57:41;290.20;;;262.10;;
49235;SDS011;35067;48.134;8.378;2022-08-18T03:59:42;618.90;;;440.83;;
49235;SDS011;35067;48.134;8.378;2022-08-18T04:01:43;1999.90;;;827.67;;
49235;SDS011;35067;48.134;8.378;2022-08-18T04:03:45;320.97;;;292.13;;
49235;SDS011;35067;48.134;8.378;2022-08-18T04:05:49;377.40;;;341.67;;
49235;SDS011;35067;48.134;8.378;2022-08-18T04:07:49;514.07;;;474.47;;
49235;SDS011;35067;48.134;8.378;2022-08-18T04:09:50;308.33;;;281.27;;
49235;SDS011;35067;48.134;8.378;2022-08-18T04:11:51;363.30;;;329.53;;
49235;SDS011;35067;48.134;8.378;2022-08-18T04:13:52;303.03;;;271.87;;
49235;SDS011;35067;48.134;8.378;2022-08-18T04:15:53;329.60;;;304.37;;
49235;SDS011;35067;48.134;8.378;2022-08-18T04:17:58;301.03;;;277.83;;
49235;SDS011;35067;48.134;8.378;2022-08-18T04:20:03;351.53;;;273.40;;
49235;SDS011;35067;48.134;8.378;2022-08-18T04:22:04;502.93;;;461.27;;
49235;SDS011;35067;48.134;8.378;2022-08-18T04:24:05;452.33;;;408.90;;
49235;SDS011;35067;48.134;8.378;2022-08-18T04:26:07;402.30;;;340.73;;
49235;SDS011;35067;48.134;8.378;2022-08-18T04:28:10;442.50;;;406.03;;
49235;SDS011;35067;48.134;8.378;2022-08-18T04:30:10;946.60;;;370.40;;
49235;SDS011;35067;48.134;8.378;2022-08-18T04:32:11;1999.90;;;490.67;;
49235;SDS011;35067;48.134;8.378;2022-08-18T04:34:12;314.37;;;291.23;;
49235;SDS011;35067;48.134;8.378;2022-08-18T04:36:14;320.67;;;292.30;;
49235;SDS011;35067;48.134;8.378;2022-08-18T04:38:15;556.93;;;453.40;;
49235;SDS011;35067;48.134;8.378;2022-08-18T04:40:16;481.73;;;299.90;;
49235;SDS011;35067;48.134;8.378;2022-08-18T04:42:17;242.33;;;224.80;;
49235;SDS011;35067;48.134;8.378;2022-08-18T04:44:17;1485.67;;;530.53;;
49235;SDS011;35067;48.134;8.378;2022-08-18T04:46:20;387.47;;;357.07;;
49235;SDS011;35067;48.134;8.378;2022-08-18T04:48:21;465.57;;;426.87;;
49235;SDS011;35067;48.134;8.378;2022-08-18T04:50:21;855.53;;;414.47;;
49235;SDS011;35067;48.134;8.378;2022-08-18T04:52:23;616.17;;;521.57;;
49235;SDS011;35067;48.134;8.378;2022-08-18T04:54:42;933.10;;;357.23;;
49235;SDS011;35067;48.134;8.378;2022-08-18T04:56:43;451.97;;;404.50;;
49235;SDS011;35067;48.134;8.378;2022-08-18T04:58:43;440.00;;;387.80;;
49235;SDS011;35067;48.134;8.378;2022-08-18T05:00:59;331.63;;;242.67;;
49235;SDS011;35067;48.134;8.378;2022-08-18T05:03:00;762.07;;;454.73;;
49235;SDS011;35067;48.134;8.378;2022-08-18T05:05:01;1286.60;;;620.70;;
49235;SDS011;35067;48.134;8.378;2022-08-18T05:07:06;592.67;;;537.77;;
49235;SDS011;35067;48.134;8.378;2022-08-18T05:09:10;590.57;;;504.60;;
49235;SDS011;35067;48.134;8.378;2022-08-18T05:11:13;477.10;;;434.10;;
49235;SDS011;35067;48.134;8.378;2022-08-18T05:13:14;760.57;;;567.10;;
49235;SDS011;35067;48.134;8.378;2022-08-18T05:15:16;592.97;;;536.60;;
49235;SDS011;35067;48.134;8.378;2022-08-18T05:17:18;656.50;;;532.07;;
49235;SDS011;35067;48.134;8.378;2022-08-18T05:19:19;378.97;;;339.50;;
49235;SDS011;35067;48.134;8.378;2022-08-18T05:21:21;806.83;;;457.27;;
49235;SDS011;35067;48.134;8.378;2022-08-18T05:23:24;1172.70;;;475.13;;
49235;SDS011;35067;48.134;8.378;2022-08-18T05:25:25;1999.90;;;573.83;;
49235;SDS011;35067;48.134;8.378;2022-08-18T05:27:29;1986.10;;;583.37;;
49235;SDS011;35067;48.134;8.378;2022-08-18T05:29:34;1088.17;;;448.63;;
49235;SDS011;35067;48.134;8.378;2022-08-18T05:31:37;1372.50;;;573.40;;
49235;SDS011;35067;48.134;8.378;2022-08-18T05:33:39;1593.53;;;597.07;;
49235;SDS011;35067;48.134;8.378;2022-08-18T05:35:44;1125.27;;;751.23;;
49235;SDS011;35067;48.134;8.378;2022-08-18T05:40:03;697.30;;;631.27;;
49235;SDS011;35067;48.134;8.378;2022-08-18T05:42:25;1024.57;;;437.73;;
49235;SDS011;35067;48.134;8.378;2022-08-18T05:44:29;520.37;;;473.40;;
49235;SDS011;35067;48.134;8.378;2022-08-18T05:46:46;663.33;;;592.60;;
49235;SDS011;35067;48.134;8.378;2022-08-18T05:48:52;515.60;;;452.33;;
49235;SDS011;35067;48.134;8.378;2022-08-18T05:50:53;562.93;;;489.80;;
49235;SDS011;35067;48.134;8.378;2022-08-18T05:53:04;548.83;;;461.43;;
49235;SDS011;35067;48.134;8.378;2022-08-18T05:55:22;664.80;;;597.80;;
49235;SDS011;35067;48.134;8.378;2022-08-18T05:58:02;909.23;;;390.40;;
49235;SDS011;35067;48.134;8.378;2022-08-18T06:00:07;430.37;;;377.27;;
49235;SDS011;35067;48.134;8.378;2022-08-18T06:04:47;1992.77;;;616.97;;
49235;SDS011;35067;48.134;8.378;2022-08-18T06:06:57;1350.47;;;623.90;;
49235;SDS011;35067;48.134;8.378;2022-08-18T06:09:18;1927.90;;;547.47;;
49235;SDS011;35067;48.134;8.378;2022-08-18T06:11:24;472.93;;;426.67;;
49235;SDS011;35067;48.134;8.378;2022-08-18T06:13:24;847.33;;;576.70;;
49235;SDS011;35067;48.134;8.378;2022-08-18T06:19:50;1181.80;;;593.53;;
49235;SDS011;35067;48.134;8.378;2022-08-18T06:26:31;1222.70;;;568.93;;
49235;SDS011;35067;48.134;8.378;2022-08-18T06:28:56;1294.67;;;668.50;;
49235;SDS011;35067;48.134;8.378;2022-08-18T06:31:19;1852.73;;;573.40;;
49235;SDS011;35067;48.134;8.378;2022-08-18T06:35:47;1507.33;;;599.07;;
49235;SDS011;35067;48.134;8.378;2022-08-18T06:38:05;1356.73;;;745.37;;
49235;SDS011;35067;48.134;8.378;2022-08-18T06:40:39;596.70;;;409.07;;
49235;SDS011;35067;48.134;8.378;2022-08-18T06:42:40;1999.90;;;454.97;;
49235;SDS011;35067;48.134;8.378;2022-08-18T06:44:43;965.53;;;671.17;;
49235;SDS011;35067;48.134;8.378;2022-08-18T06:46:55;1999.90;;;741.87;;
49235;SDS011;35067;48.134;8.378;2022-08-18T06:49:34;1950.43;;;685.73;;
49235;SDS011;35067;48.134;8.378;2022-08-18T06:51:39;1999.90;;;532.57;;
49235;SDS011;35067;48.134;8.378;2022-08-18T06:53:54;1059.10;;;520.47;;
49235;SDS011;35067;48.134;8.378;2022-08-18T06:56:13;1924.23;;;587.63;;
49235;SDS011;35067;48.134;8.378;2022-08-18T06:58:27;1895.80;;;437.60;;
49235;SDS011;35067;48.134;8.378;2022-08-18T07:00:31;759.73;;;490.10;;
49235;SDS011;35067;48.134;8.378;2022-08-18T07:04:41;1999.90;;;606.47;;
49235;SDS011;35067;48.134;8.378;2022-08-18T07:06:56;1517.13;;;577.27;;
49235;SDS011;35067;48.134;8.378;2022-08-18T07:09:16;478.70;;;370.50;;
49235;SDS011;35067;48.134;8.378;2022-08-18T07:13:26;1708.53;;;605.13;;
49235;SDS011;35067;48.134;8.378;2022-08-18T07:15:28;1999.90;;;810.10;;
49235;SDS011;35067;48.134;8.378;2022-08-18T07:17:30;1999.90;;;922.37;;
49235;SDS011;35067;48.134;8.378;2022-08-18T07:19:33;1999.90;;;684.57;;
49235;SDS011;35067;48.134;8.378;2022-08-18T07:21:36;1999.90;;;747.43;;
49235;SDS011;35067;48.134;8.378;2022-08-18T07:23:39;1999.90;;;690.97;;
49235;SDS011;35067;48.134;8.378;2022-08-18T07:25:40;1999.90;;;767.40;;
49235;SDS011;35067;48.134;8.378;2022-08-18T07:27:46;1999.90;;;747.30;;
49235;SDS011;35067;48.134;8.378;2022-08-18T07:32:12;1999.90;;;829.00;;
49235;SDS011;35067;48.134;8.378;2022-08-18T07:34:27;1999.90;;;965.33;;
49235;SDS011;35067;48.134;8.378;2022-08-18T07:36:57;1999.90;;;677.23;;
49235;SDS011;35067;48.134;8.378;2022-08-18T07:39:17;1999.90;;;836.87;;
49235;SDS011;35067;48.134;8.378;2022-08-18T07:41:41;1999.90;;;803.20;;
49235;SDS011;35067;48.134;8.378;2022-08-18T07:46:06;1999.90;;;999.90;;
49235;SDS011;35067;48.134;8.378;2022-08-18T07:48:17;1999.90;;;960.57;;
49235;SDS011;35067;48.134;8.378;2022-08-18T07:50:25;1999.90;;;729.07;;
49235;SDS011;35067;48.134;8.378;2022-08-18T07:52:37;1999.90;;;728.63;;
49235;SDS011;35067;48.134;8.378;2022-08-18T07:54:49;1999.90;;;786.23;;
49235;SDS011;35067;48.134;8.378;2022-08-18T07:57:16;1999.90;;;723.17;;
49235;SDS011;35067;48.134;8.378;2022-08-18T07:59:30;1999.90;;;712.77;;
49235;SDS011;35067;48.134;8.378;2022-08-18T08:02:12;1999.90;;;718.50;;
49235;SDS011;35067;48.134;8.378;2022-08-18T08:04:37;1999.90;;;999.90;;
49235;SDS011;35067;48.134;8.378;2022-08-18T08:06:53;1999.90;;;849.73;;
49235;SDS011;35067;48.134;8.378;2022-08-18T08:09:19;1999.90;;;906.37;;
49235;SDS011;35067;48.134;8.378;2022-08-18T08:11:57;1999.90;;;737.60;;
49235;SDS011;35067;48.134;8.378;2022-08-18T08:14:13;1999.90;;;767.00;;
49235;SDS011;35067;48.134;8.378;2022-08-18T08:16:47;1999.90;;;796.47;;
49235;SDS011;35067;48.134;8.378;2022-08-18T08:19:01;1999.90;;;999.57;;
49235;SDS011;35067;48.134;8.378;2022-08-18T08:21:39;1999.90;;;695.43;;
49235;SDS011;35067;48.134;8.378;2022-08-18T08:23:51;1999.90;;;734.70;;
49235;SDS011;35067;48.134;8.378;2022-08-18T08:28:43;1999.90;;;672.87;;
49235;SDS011;35067;48.134;8.378;2022-08-18T08:31:10;1999.90;;;680.80;;
49235;SDS011;35067;48.134;8.378;2022-08-18T08:33:25;1999.90;;;831.53;;
49235;SDS011;35067;48.134;8.378;2022-08-18T08:35:40;1999.90;;;847.60;;
49235;SDS011;35067;48.134;8.378;2022-08-18T08:37:50;1999.90;;;820.97;;
49235;SDS011;35067;48.134;8.378;2022-08-18T08:42:33;1999.90;;;784.33;;
49235;SDS011;35067;48.134;8.378;2022-08-18T08:44:56;1999.90;;;761.20;;
49235;SDS011;35067;48.134;8.378;2022-08-18T08:47:13;1999.90;;;744.80;;
49235;SDS011;35067;48.134;8.378;2022-08-18T08:49:39;1999.90;;;783.03;;
49235;SDS011;35067;48.134;8.378;2022-08-18T08:51:48;1999.90;;;735.13;;
49235;SDS011;35067;48.134;8.378;2022-08-18T08:54:38;1999.90;;;703.20;;
49235;SDS011;35067;48.134;8.378;2022-08-18T08:56:27;1999.90;;;816.63;;
49235;SDS011;35067;48.134;8.378;2022-08-18T09:00:48;1999.90;;;692.73;;
49235;SDS011;35067;48.134;8.378;2022-08-18T09:02:56;1999.90;;;715.00;;
49235;SDS011;35067;48.134;8.378;2022-08-18T09:15:09;1999.90;;;981.10;;
49235;SDS011;35067;48.134;8.378;2022-08-18T09:17:46;1999.90;;;742.27;;
49235;SDS011;35067;48.134;8.378;2022-08-18T09:22:44;1999.90;;;941.40;;
49235;SDS011;35067;48.134;8.378;2022-08-18T09:27:41;1999.90;;;776.70;;
49235;SDS011;35067;48.134;8.378;2022-08-18T09:29:54;1999.90;;;999.90;;
49235;SDS011;35067;48.134;8.378;2022-08-18T09:34:21;1999.90;;;929.30;;
49235;SDS011;35067;48.134;8.378;2022-08-18T09:37:03;1999.90;;;875.97;;
49235;SDS011;35067;48.134;8.378;2022-08-18T09:39:30;1999.90;;;793.23;;
49235;SDS011;35067;48.134;8.378;2022-08-18T09:48:47;1999.90;;;930.73;;
49235;SDS011;35067;48.134;8.378;2022-08-18T09:51:34;1999.90;;;803.23;;
49235;SDS011;35067;48.134;8.378;2022-08-18T09:53:51;1999.90;;;949.90;;
49235;SDS011;35067;48.134;8.378;2022-08-18T09:56:06;1999.90;;;756.17;;
49235;SDS011;35067;48.134;8.378;2022-08-18T10:00:28;1999.90;;;835.77;;
49235;SDS011;35067;48.134;8.378;2022-08-18T10:04:31;1999.90;;;783.83;;
49235;SDS011;35067;48.134;8.378;2022-08-18T10:06:48;1999.90;;;584.23;;
49235;SDS011;35067;48.134;8.378;2022-08-18T10:08:52;1999.90;;;997.27;;
49235;SDS011;35067;48.134;8.378;2022-08-18T10:15:55;1999.90;;;908.50;;
49235;SDS011;35067;48.134;8.378;2022-08-18T10:25:46;1999.90;;;826.17;;
49235;SDS011;35067;48.134;8.378;2022-08-18T10:27:49;1999.90;;;907.27;;
49235;SDS011;35067;48.134;8.378;2022-08-18T10:29:56;1999.90;;;837.40;;
49235;SDS011;35067;48.134;8.378;2022-08-18T10:36:06;1999.90;;;887.10;;
49235;SDS011;35067;48.134;8.378;2022-08-18T10:38:19;1999.90;;;965.67;;
49235;SDS011;35067;48.134;8.378;2022-08-18T10:40:28;1999.90;;;840.93;;
49235;SDS011;35067;48.134;8.378;2022-08-18T10:45:08;1999.90;;;860.50;;
49235;SDS011;35067;48.134;8.378;2022-08-18T10:47:25;1999.90;;;878.73;;
49235;SDS011;35067;48.134;8.378;2022-08-18T10:49:29;1999.90;;;999.90;;
49235;SDS011;35067;48.134;8.378;2022-08-18T10:53:57;1999.90;;;829.50;;
49235;SDS011;35067;48.134;8.378;2022-08-18T10:58:52;1999.90;;;826.23;;
49235;SDS011;35067;48.134;8.378;2022-08-18T11:01:15;1999.90;;;816.47;;
49235;SDS011;35067;48.134;8.378;2022-08-18T11:05:38;1999.90;;;805.37;;
49235;SDS011;35067;48.134;8.378;2022-08-18T11:07:39;1999.90;;;845.67;;
49235;SDS011;35067;48.134;8.378;2022-08-18T11:09:42;1999.90;;;834.63;;
49235;SDS011;35067;48.134;8.378;2022-08-18T11:11:44;1999.90;;;860.77;;
49235;SDS011;35067;48.134;8.378;2022-08-18T11:18:48;1999.90;;;915.27;;
49235;SDS011;35067;48.134;8.378;2022-08-18T11:23:35;1999.90;;;769.53;;
49235;SDS011;35067;48.134;8.378;2022-08-18T11:25:36;1999.90;;;883.37;;
49235;SDS011;35067;48.134;8.378;2022-08-18T11:27:38;1999.90;;;987.60;;
49235;SDS011;35067;48.134;8.378;2022-08-18T11:29:46;1999.90;;;999.90;;
49235;SDS011;35067;48.134;8.378;2022-08-18T11:31:48;1999.90;;;833.23;;
49235;SDS011;35067;48.134;8.378;2022-08-18T11:33:53;1999.90;;;721.63;;
49235;SDS011;35067;48.134;8.378;2022-08-18T11:35:54;1999.90;;;782.83;;
49235;SDS011;35067;48.134;8.378;2022-08-18T11:37:59;1999.90;;;973.10;;
49235;SDS011;35067;48.134;8.378;2022-08-18T11:42:52;1999.90;;;856.17;;
49235;SDS011;35067;48.134;8.378;2022-08-18T11:45:12;1999.90;;;992.77;;
49235;SDS011;35067;48.134;8.378;2022-08-18T11:47:20;1999.90;;;822.27;;
49235;SDS011;35067;48.134;8.378;2022-08-18T11:49:28;1999.90;;;999.90;;
49235;SDS011;35067;48.134;8.378;2022-08-18T11:51:32;1999.90;;;832.80;;
49235;SDS011;35067;48.134;8.378;2022-08-18T11:53:41;1999.90;;;880.27;;
49235;SDS011;35067;48.134;8.378;2022-08-18T11:56:23;1999.90;;;913.73;;
49235;SDS011;35067;48.134;8.378;2022-08-18T11:59:29;1999.90;;;973.07;;
49235;SDS011;35067;48.134;8.378;2022-08-18T12:01:04;1999.90;;;999.90;;
49235;SDS011;35067;48.134;8.378;2022-08-18T12:03:25;1999.90;;;999.90;;
49235;SDS011;35067;48.134;8.378;2022-08-18T12:05:47;1999.90;;;968.10;;
49235;SDS011;35067;48.134;8.378;2022-08-18T12:07:53;1999.90;;;835.97;;
49235;SDS011;35067;48.134;8.378;2022-08-18T12:10:13;1999.90;;;999.90;;
49235;SDS011;35067;48.134;8.378;2022-08-18T12:12:30;1999.90;;;746.70;;
49235;SDS011;35067;48.134;8.378;2022-08-18T12:14:33;1999.90;;;842.37;;
49235;SDS011;35067;48.134;8.378;2022-08-18T12:17:19;1999.90;;;663.90;;
49235;SDS011;35067;48.134;8.378;2022-08-18T12:19:21;1999.90;;;683.03;;
49235;SDS011;35067;48.134;8.378;2022-08-18T12:21:26;1999.90;;;845.07;;
49235;SDS011;35067;48.134;8.378;2022-08-18T12:23:27;1999.90;;;705.13;;
49235;SDS011;35067;48.134;8.378;2022-08-18T12:25:28;1999.90;;;999.90;;
49235;SDS011;35067;48.134;8.378;2022-08-18T12:27:29;1999.90;;;999.90;;
49235;SDS011;35067;48.134;8.378;2022-08-18T12:29:30;1999.90;;;999.90;;
49235;SDS011;35067;48.134;8.378;2022-08-18T12:31:31;1999.90;;;770.33;;
49235;SDS011;35067;48.134;8.378;2022-08-18T12:33:32;1999.90;;;805.57;;
49235;SDS011;35067;48.134;8.378;2022-08-18T12:35:34;1999.90;;;999.90;;
49235;SDS011;35067;48.134;8.378;2022-08-18T12:37:35;1999.90;;;875.97;;
49235;SDS011;35067;48.134;8.378;2022-08-18T12:39:37;1999.90;;;984.97;;
49235;SDS011;35067;48.134;8.378;2022-08-18T12:41:38;1999.90;;;833.90;;
49235;SDS011;35067;48.134;8.378;2022-08-18T12:43:39;1999.90;;;871.67;;
49235;SDS011;35067;48.134;8.378;2022-08-18T12:45:40;1999.90;;;999.90;;
49235;SDS011;35067;48.134;8.378;2022-08-18T12:47:41;1999.90;;;862.13;;
49235;SDS011;35067;48.134;8.378;2022-08-18T12:49:42;1999.90;;;999.90;;
49235;SDS011;35067;48.134;8.378;2022-08-18T12:51:42;1999.90;;;929.27;;
49235;SDS011;35067;48.134;8.378;2022-08-18T12:53:44;1999.90;;;873.40;;
49235;SDS011;35067;48.134;8.378;2022-08-18T12:55:44;1999.90;;;999.90;;
49235;SDS011;35067;48.134;8.378;2022-08-18T12:57:45;1999.90;;;954.47;;
49235;SDS011;35067;48.134;8.378;2022-08-18T12:59:46;1999.90;;;647.50;;
49235;SDS011;35067;48.134;8.378;2022-08-18T13:01:46;1999.90;;;906.33;;
49235;SDS011;35067;48.134;8.378;2022-08-18T13:03:47;1999.90;;;999.90;;
49235;SDS011;35067;48.134;8.378;2022-08-18T13:05:52;1999.90;;;925.07;;
49235;SDS011;35067;48.134;8.378;2022-08-18T13:07:55;1999.90;;;687.30;;
49235;SDS011;35067;48.134;8.378;2022-08-18T13:09:59;1999.90;;;896.57;;
49235;SDS011;35067;48.134;8.378;2022-08-18T13:12:00;1999.90;;;770.00;;
49235;SDS011;35067;48.134;8.378;2022-08-18T13:14:01;1999.90;;;606.10;;
49235;SDS011;35067;48.134;8.378;2022-08-18T13:16:02;1999.90;;;858.93;;
49235;SDS011;35067;48.134;8.378;2022-08-18T13:18:04;1999.90;;;877.27;;
49235;SDS011;35067;48.134;8.378;2022-08-18T13:20:07;1999.90;;;994.83;;
49235;SDS011;35067;48.134;8.378;2022-08-18T13:22:14;1999.90;;;859.43;;
49235;SDS011;35067;48.134;8.378;2022-08-18T13:24:15;1999.90;;;999.90;;
49235;SDS011;35067;48.134;8.378;2022-08-18T13:26:19;1999.90;;;999.90;;
49235;SDS011;35067;48.134;8.378;2022-08-18T13:28:25;1999.90;;;843.10;;
49235;SDS011;35067;48.134;8.378;2022-08-18T13:30:26;1999.90;;;917.03;;
49235;SDS011;35067;48.134;8.378;2022-08-18T13:32:27;1999.90;;;766.03;;
49235;SDS011;35067;48.134;8.378;2022-08-18T13:34:28;1999.90;;;790.37;;
49235;SDS011;35067;48.134;8.378;2022-08-18T13:36:30;1999.90;;;817.43;;